Queen Of Burnaby — VCVV — position and weather

sailwx.info

Track history (hours):
 
Tides and Currents Weather Stations Pressure Air Temp Water Temp Dewpoint Dewpoint Depression Visibility Wind Speed Wind Dir Waves Ship Positions

Queen Of Burnaby

Last reported at 2014-Jul-31 20:31 UTC. Time now 2014-Jul-31 21:42 UTC.
Position N 49°44' W 124°55'.

Length 130 m; draft 4.1 m.

Type: Passenger vessel. MMSI: 316001246.

Date/timePositionNaut miles runAvg speedWind from/ knotsBaromVisibWave heightAir tempDewpointWater temp
2014-Jul-31 20:31N 49°44' W 124°55'1111.4
2014-Jul-31 19:33N 49°48' W 124°39'5 5.1
2014-Jul-31 18:32N 49°50' W 124°32'1212.7
2014-Jul-31 17:33N 49°46' W 124°50'4 3.5
2014-Jul-31 16:28N 49°44' W 124°55'1213.5
2014-Jul-31 15:33N 49°49' W 124°38'2 2.2
2014-Jul-31 14:33N 49°50' W 124°35'1414.0
2014-Jul-31 13:32N 49°44' W 124°55'5 0.5
2014-Jul-31 04:33N 49°46' W 124°48'10 8.5
2014-Jul-31 03:20N 49°50' W 124°33'1215.0
2014-Jul-31 02:33N 49°46' W 124°50'4 3.7
2014-Jul-31 01:33N 49°44' W 124°55'1212.4
2014-Jul-31 00:34N 49°49' W 124°38'4 3.3
2014-Jul-30 23:28N 49°50' W 124°33'1314.2
2014-Jul-30 22:33N 49°45' W 124°51'2 1.0
2014-Jul-30 20:12N 49°45' W 124°55'1014.7
2014-Jul-30 19:32N 49°48' W 124°40'5 4.5
2014-Jul-30 18:20N 49°50' W 124°33'1114.6
2014-Jul-30 17:33N 49°47' W 124°49'4 4.3
2014-Jul-30 16:32N 49°44' W 124°55'1414.3
2014-Jul-30 15:33N 49°49' W 124°35'1 0.7
2014-Jul-30 14:34N 49°49' W 124°36'1313.4
2014-Jul-30 13:33N 49°44' W 124°55'0 0.0
2014-Jul-30 10:17N 49°44' W 124°55'0 0.0
2014-Jul-30 07:23N 49°44' W 124°55'0 0.0
2014-Jul-30 05:17N 49°44' W 124°55'5 6.2
2014-Jul-30 04:33N 49°46' W 124°49'1210.7
2014-Jul-30 03:28N 49°50' W 124°32'1213.6
2014-Jul-30 02:33N 49°46' W 124°50'4 3.4
2014-Jul-30 01:28N 49°44' W 124°55'1314.4
2014-Jul-30 00:33N 49°49' W 124°36'3 2.8
2014-Jul-29 23:30N 49°50' W 124°32'1514.9
2014-Jul-29 22:30N 49°45' W 124°54'1 0.5
2014-Jul-29 20:27N 49°44' W 124°55'1213.5
2014-Jul-29 19:33N 49°49' W 124°38'4 4.0
2014-Jul-29 18:31N 49°50' W 124°32'1313.0
2014-Jul-29 17:33N 49°45' W 124°50'4 3.7
2014-Jul-29 16:33N 49°44' W 124°55'1312.5
2014-Jul-29 15:33N 49°49' W 124°37'1 1.5
2014-Jul-29 14:33N 49°50' W 124°35'1413.9
2014-Jul-29 13:33N 49°44' W 124°55'0 0.0
2014-Jul-29 06:33N 49°44' W 124°55'0 0.0
2014-Jul-29 05:33N 49°44' W 124°55'5 5.1
2014-Jul-29 04:33N 49°47' W 124°48'11 9.0
2014-Jul-29 03:22N 49°50' W 124°33'1315.3
2014-Jul-29 02:33N 49°46' W 124°51'3 2.7
2014-Jul-29 01:31N 49°45' W 124°55'1313.4
2014-Jul-29 00:33N 49°49' W 124°36'2 2.1
2014-Jul-28 23:33N 49°50' W 124°33'1515.0
2014-Jul-28 22:33N 49°45' W 124°55'0 0.1
2014-Jul-28 20:19N 49°44' W 124°55'1113.7
2014-Jul-28 19:33N 49°48' W 124°40'5 4.0
2014-Jul-28 18:21N 49°50' W 124°33'1114.1
2014-Jul-28 17:33N 49°46' W 124°49'4 3.5
2014-Jul-28 16:24N 49°44' W 124°55'1214.4
2014-Jul-28 15:33N 49°49' W 124°38'2 2.0
2014-Jul-28 14:33N 49°50' W 124°35'14 6.5
2014-Jul-28 12:22N 49°44' W 124°55'0 0.0
2014-Jul-28 09:28N 49°44' W 124°55'0 0.0
2014-Jul-28 06:04N 49°44' W 124°55'0 0.0
2014-Jul-28 05:28N 49°44' W 124°55'5 5.7
2014-Jul-28 04:33N 49°46' W 124°48'1110.4
2014-Jul-28 03:29N 49°50' W 124°32'1313.6
2014-Jul-28 02:33N 49°46' W 124°51'4 3.5
2014-Jul-28 01:33N 49°44' W 124°55'1212.5
2014-Jul-28 00:33N 49°49' W 124°37'3 3.1
2014-Jul-27 23:32N 49°50' W 124°33'1514.8
2014-Jul-27 22:30N 49°45' W 124°55'0 0.2
2014-Jul-27 20:18N 49°44' W 124°55'1013.0
2014-Jul-27 19:32N 49°48' W 124°41'6 6.0
2014-Jul-27 18:30N 49°50' W 124°32'1212.3
2014-Jul-27 17:33N 49°46' W 124°49'4 3.9
2014-Jul-27 16:24N 49°44' W 124°55'1112.8
2014-Jul-27 15:33N 49°48' W 124°39'3 3.0
2014-Jul-27 14:33N 49°50' W 124°35'1413.7
2014-Jul-27 13:32N 49°45' W 124°55'0 0.1
2014-Jul-27 11:15N 49°44' W 124°55'0 0.0
2014-Jul-27 10:21N 49°44' W 124°55'5 0.9
2014-Jul-27 04:33N 49°46' W 124°48'10 6.9
2014-Jul-27 03:06N 49°50' W 124°34'712.8
2014-Jul-27 02:32N 49°47' W 124°44'8 5.8
2014-Jul-27 01:13N 49°44' W 124°55'0 0.0
2014-Jul-27 00:07N 49°44' W 124°55'0 0.0
2014-Jul-26 23:31N 49°44' W 124°55'0 0.0
2014-Jul-26 22:31N 49°44' W 124°55'0 0.0
2014-Jul-26 21:19N 49°44' W 124°55'0 0.0
2014-Jul-26 20:33N 49°44' W 124°55'1010.3
2014-Jul-26 19:33N 49°48' W 124°40'6 5.6
2014-Jul-26 18:30N 49°50' W 124°32'1212.7
2014-Jul-26 17:33N 49°46' W 124°49'4 3.7
2014-Jul-26 16:27N 49°44' W 124°55'1112.8
2014-Jul-26 15:33N 49°49' W 124°39'3 2.7
2014-Jul-26 14:33N 49°50' W 124°35'1414.0
2014-Jul-26 13:33N 49°45' W 124°55'0 0.0
2014-Jul-26 08:33N 49°44' W 124°55'0 0.0
2014-Jul-26 07:33N 49°44' W 124°55'0 0.0
2014-Jul-26 06:21N 49°44' W 124°55'0 0.0
2014-Jul-26 05:15N 49°44' W 124°55'7 9.5
2014-Jul-26 04:31N 49°47' W 124°45'9 8.3
2014-Jul-26 03:25N 49°50' W 124°32'1315.0
2014-Jul-26 02:33N 49°46' W 124°51'3 3.2
2014-Jul-26 01:33N 49°44' W 124°55'1414.2
2014-Jul-26 00:33N 49°49' W 124°35'1 0.8
2014-Jul-25 23:33N 49°50' W 124°35'1413.6
2014-Jul-25 22:31N 49°44' W 124°55'0 0.0
2014-Jul-25 21:33N 49°44' W 124°55'0 0.0
2014-Jul-25 20:30N 49°44' W 124°55'1010.9
2014-Jul-25 19:33N 49°48' W 124°40'6 6.0
2014-Jul-25 18:33N 49°50' W 124°32'1212.0
2014-Jul-25 17:33N 49°46' W 124°49'4 4.1
2014-Jul-25 16:33N 49°44' W 124°55'1313.1
2014-Jul-25 15:33N 49°49' W 124°36'1 0.9
2014-Jul-25 14:33N 49°50' W 124°36'1413.5
2014-Jul-25 13:33N 49°44' W 124°55'0 0.1
2014-Jul-25 12:32N 49°44' W 124°55'0 0.0
2014-Jul-25 11:20N 49°44' W 124°55'0 0.0
2014-Jul-25 10:20N 49°44' W 124°55'0 0.0
2014-Jul-25 09:32N 49°44' W 124°55'0 0.0
2014-Jul-25 08:20N 49°44' W 124°55'0 0.0
2014-Jul-25 07:26N 49°44' W 124°55'0 0.0
2014-Jul-25 06:32N 49°44' W 124°55'0 0.0
2014-Jul-25 05:32N 49°44' W 124°55'6 5.6
2014-Jul-25 04:31N 49°46' W 124°47'1110.6
2014-Jul-25 03:32N 49°50' W 124°32'1212.7
2014-Jul-25 02:33N 49°46' W 124°50'4 3.9
2014-Jul-25 01:33N 49°44' W 124°55'1212.2
2014-Jul-25 00:33N 49°49' W 124°38'4 3.4
2014-Jul-24 23:29N 49°50' W 124°33'1314.2
2014-Jul-24 22:33N 49°46' W 124°52'3 2.9
2014-Jul-24 21:33N 49°44' W 124°55'3 3.2
2014-Jul-24 20:29N 49°46' W 124°51'13 6.4
2014-Jul-24 18:30N 49°50' W 124°32'1212.9
2014-Jul-24 17:33N 49°46' W 124°49'4 4.0
2014-Jul-24 16:32N 49°44' W 124°55'1313.4
2014-Jul-24 15:33N 49°49' W 124°36'1 0.6
2014-Jul-24 14:33N 49°50' W 124°36'1313.4
2014-Jul-24 13:33N 49°44' W 124°55'0 0.1
2014-Jul-24 12:11N 49°44' W 124°55'0 0.0
2014-Jul-24 11:29N 49°44' W 124°55'0 0.0
2014-Jul-24 10:11N 49°44' W 124°55'0 0.0
2014-Jul-24 09:17N 49°44' W 124°55'0 0.0
2014-Jul-24 05:05N 49°44' W 124°55'712.8
2014-Jul-24 04:33N 49°47' W 124°46'9 8.5
2014-Jul-24 03:29N 49°50' W 124°33'1415.3
2014-Jul-24 02:33N 49°45' W 124°53'2 1.8
2014-Jul-24 01:33N 49°44' W 124°55'1312.1
2014-Jul-24 00:30N 49°49' W 124°37'3 3.2
2014-Jul-23 23:29N 49°50' W 124°32'1213.2
2014-Jul-23 22:33N 49°46' W 124°50'4 3.7
2014-Jul-23 21:32N 49°44' W 124°55'0 0.0
2014-Jul-23 20:31N 49°44' W 124°55'1010.8
2014-Jul-23 19:33N 49°48' W 124°40'5 4.3
2014-Jul-23 18:20N 49°50' W 124°33'1114.2
2014-Jul-23 17:33N 49°46' W 124°49'5 4.2
2014-Jul-23 16:28N 49°44' W 124°55'1314.1
2014-Jul-23 15:33N 49°49' W 124°37'1 0.6
2014-Jul-23 14:33N 49°49' W 124°36'13 4.1
2014-Jul-23 11:16N 49°44' W 124°55'0 0.0
2014-Jul-23 05:08N 49°44' W 124°55'5 9.5
2014-Jul-23 04:33N 49°47' W 124°48'10 9.7
2014-Jul-23 03:29N 49°50' W 124°32'1414.8
2014-Jul-23 02:34N 49°46' W 124°52'2 2.5
2014-Jul-23 01:33N 49°44' W 124°55'1211.9
2014-Jul-23 00:34N 49°49' W 124°38'4 3.8
2014-Jul-22 23:30N 49°50' W 124°33'1514.8
2014-Jul-22 22:30N 49°45' W 124°54'1 0.6
2014-Jul-22 20:33N 49°44' W 124°55'9 9.6
2014-Jul-22 19:33N 49°48' W 124°42'7 6.4
2014-Jul-22 18:30N 49°50' W 124°32'1213.1
2014-Jul-22 17:33N 49°46' W 124°50'4 3.9
2014-Jul-22 16:33N 49°44' W 124°55'1212.4
2014-Jul-22 15:33N 49°49' W 124°38'1 1.2
2014-Jul-22 14:34N 49°50' W 124°36'1313.3
2014-Jul-22 13:33N 49°44' W 124°55'0 0.1
2014-Jul-22 11:14N 49°44' W 124°55'0 0.0
2014-Jul-22 08:32N 49°44' W 124°55'0 0.0
2014-Jul-22 07:26N 49°44' W 124°55'0 0.0
2014-Jul-22 06:26N 49°44' W 124°55'0 0.0
2014-Jul-22 05:32N 49°44' W 124°55'6 5.8
2014-Jul-22 04:34N 49°47' W 124°48'1110.6
2014-Jul-22 03:33N 49°50' W 124°32'1312.8
2014-Jul-22 02:32N 49°46' W 124°51'3 3.4
2014-Jul-22 01:33N 49°44' W 124°55'1212.0
2014-Jul-22 00:34N 49°49' W 124°38'4 3.7
2014-Jul-21 23:28N 49°50' W 124°32'1314.0
2014-Jul-21 22:32N 49°46' W 124°51'  
Track history (hours):
 
Tides and Currents Weather Stations Pressure Air Temp Water Temp Dewpoint Dewpoint Depression Visibility Wind Speed Wind Dir Waves Ship Positions

Queen Of Burnaby

Last reported at 2014-Jul-31 20:31 UTC. Time now 2014-Jul-31 21:42 UTC.
Position N 49°44' W 124°55'.

Length 130 m; draft 4.1 m.

Type: Passenger vessel. MMSI: 316001246.

Date/timePositionNaut miles runAvg speedWind from/ knotsBaromVisibWave heightAir tempDewpointWater temp
2014-Jul-31 20:31N 49°44' W 124°55'1111.4
2014-Jul-31 19:33N 49°48' W 124°39'5 5.1
2014-Jul-31 18:32N 49°50' W 124°32'1212.7
2014-Jul-31 17:33N 49°46' W 124°50'4 3.5
2014-Jul-31 16:28N 49°44' W 124°55'1213.5
2014-Jul-31 15:33N 49°49' W 124°38'2 2.2
2014-Jul-31 14:33N 49°50' W 124°35'1414.0
2014-Jul-31 13:32N 49°44' W 124°55'5 0.5
2014-Jul-31 04:33N 49°46' W 124°48'10 8.5
2014-Jul-31 03:20N 49°50' W 124°33'1215.0
2014-Jul-31 02:33N 49°46' W 124°50'4 3.7
2014-Jul-31 01:33N 49°44' W 124°55'1212.4
2014-Jul-31 00:34N 49°49' W 124°38'4 3.3
2014-Jul-30 23:28N 49°50' W 124°33'1314.2
2014-Jul-30 22:33N 49°45' W 124°51'2 1.0
2014-Jul-30 20:12N 49°45' W 124°55'1014.7
2014-Jul-30 19:32N 49°48' W 124°40'5 4.5
2014-Jul-30 18:20N 49°50' W 124°33'1114.6
2014-Jul-30 17:33N 49°47' W 124°49'4 4.3
2014-Jul-30 16:32N 49°44' W 124°55'1414.3
2014-Jul-30 15:33N 49°49' W 124°35'1 0.7
2014-Jul-30 14:34N 49°49' W 124°36'1313.4
2014-Jul-30 13:33N 49°44' W 124°55'0 0.0
2014-Jul-30 10:17N 49°44' W 124°55'0 0.0
2014-Jul-30 07:23N 49°44' W 124°55'0 0.0
2014-Jul-30 05:17N 49°44' W 124°55'5 6.2
2014-Jul-30 04:33N 49°46' W 124°49'1210.7
2014-Jul-30 03:28N 49°50' W 124°32'1213.6
2014-Jul-30 02:33N 49°46' W 124°50'4 3.4
2014-Jul-30 01:28N 49°44' W 124°55'1314.4
2014-Jul-30 00:33N 49°49' W 124°36'3 2.8
2014-Jul-29 23:30N 49°50' W 124°32'1514.9
2014-Jul-29 22:30N 49°45' W 124°54'1 0.5
2014-Jul-29 20:27N 49°44' W 124°55'1213.5
2014-Jul-29 19:33N 49°49' W 124°38'4 4.0
2014-Jul-29 18:31N 49°50' W 124°32'1313.0
2014-Jul-29 17:33N 49°45' W 124°50'4 3.7
2014-Jul-29 16:33N 49°44' W 124°55'1312.5
2014-Jul-29 15:33N 49°49' W 124°37'1 1.5
2014-Jul-29 14:33N 49°50' W 124°35'1413.9
2014-Jul-29 13:33N 49°44' W 124°55'0 0.0
2014-Jul-29 06:33N 49°44' W 124°55'0 0.0
2014-Jul-29 05:33N 49°44' W 124°55'5 5.1
2014-Jul-29 04:33N 49°47' W 124°48'11 9.0
2014-Jul-29 03:22N 49°50' W 124°33'1315.3
2014-Jul-29 02:33N 49°46' W 124°51'3 2.7
2014-Jul-29 01:31N 49°45' W 124°55'1313.4
2014-Jul-29 00:33N 49°49' W 124°36'2 2.1
2014-Jul-28 23:33N 49°50' W 124°33'1515.0
2014-Jul-28 22:33N 49°45' W 124°55'0 0.1
2014-Jul-28 20:19N 49°44' W 124°55'1113.7
2014-Jul-28 19:33N 49°48' W 124°40'5 4.0
2014-Jul-28 18:21N 49°50' W 124°33'1114.1
2014-Jul-28 17:33N 49°46' W 124°49'4 3.5
2014-Jul-28 16:24N 49°44' W 124°55'1214.4
2014-Jul-28 15:33N 49°49' W 124°38'2 2.0
2014-Jul-28 14:33N 49°50' W 124°35'14 6.5
2014-Jul-28 12:22N 49°44' W 124°55'0 0.0
2014-Jul-28 09:28N 49°44' W 124°55'0 0.0
2014-Jul-28 06:04N 49°44' W 124°55'0 0.0
2014-Jul-28 05:28N 49°44' W 124°55'5 5.7
2014-Jul-28 04:33N 49°46' W 124°48'1110.4
2014-Jul-28 03:29N 49°50' W 124°32'1313.6
2014-Jul-28 02:33N 49°46' W 124°51'4 3.5
2014-Jul-28 01:33N 49°44' W 124°55'1212.5
2014-Jul-28 00:33N 49°49' W 124°37'3 3.1
2014-Jul-27 23:32N 49°50' W 124°33'1514.8
2014-Jul-27 22:30N 49°45' W 124°55'0 0.2
2014-Jul-27 20:18N 49°44' W 124°55'1013.0
2014-Jul-27 19:32N 49°48' W 124°41'6 6.0
2014-Jul-27 18:30N 49°50' W 124°32'1212.3
2014-Jul-27 17:33N 49°46' W 124°49'4 3.9
2014-Jul-27 16:24N 49°44' W 124°55'1112.8
2014-Jul-27 15:33N 49°48' W 124°39'3 3.0
2014-Jul-27 14:33N 49°50' W 124°35'1413.7
2014-Jul-27 13:32N 49°45' W 124°55'0 0.1
2014-Jul-27 11:15N 49°44' W 124°55'0 0.0
2014-Jul-27 10:21N 49°44' W 124°55'5 0.9
2014-Jul-27 04:33N 49°46' W 124°48'10 6.9
2014-Jul-27 03:06N 49°50' W 124°34'712.8
2014-Jul-27 02:32N 49°47' W 124°44'8 5.8
2014-Jul-27 01:13N 49°44' W 124°55'0 0.0
2014-Jul-27 00:07N 49°44' W 124°55'0 0.0
2014-Jul-26 23:31N 49°44' W 124°55'0 0.0
2014-Jul-26 22:31N 49°44' W 124°55'0 0.0
2014-Jul-26 21:19N 49°44' W 124°55'0 0.0
2014-Jul-26 20:33N 49°44' W 124°55'1010.3
2014-Jul-26 19:33N 49°48' W 124°40'6 5.6
2014-Jul-26 18:30N 49°50' W 124°32'1212.7
2014-Jul-26 17:33N 49°46' W 124°49'4 3.7
2014-Jul-26 16:27N 49°44' W 124°55'1112.8
2014-Jul-26 15:33N 49°49' W 124°39'3 2.7
2014-Jul-26 14:33N 49°50' W 124°35'1414.0
2014-Jul-26 13:33N 49°45' W 124°55'0 0.0
2014-Jul-26 08:33N 49°44' W 124°55'0 0.0
2014-Jul-26 07:33N 49°44' W 124°55'0 0.0
2014-Jul-26 06:21N 49°44' W 124°55'0 0.0
2014-Jul-26 05:15N 49°44' W 124°55'7 9.5
2014-Jul-26 04:31N 49°47' W 124°45'9 8.3
2014-Jul-26 03:25N 49°50' W 124°32'1315.0
2014-Jul-26 02:33N 49°46' W 124°51'3 3.2
2014-Jul-26 01:33N 49°44' W 124°55'1414.2
2014-Jul-26 00:33N 49°49' W 124°35'1 0.8
2014-Jul-25 23:33N 49°50' W 124°35'1413.6
2014-Jul-25 22:31N 49°44' W 124°55'0 0.0
2014-Jul-25 21:33N 49°44' W 124°55'0 0.0
2014-Jul-25 20:30N 49°44' W 124°55'1010.9
2014-Jul-25 19:33N 49°48' W 124°40'6 6.0
2014-Jul-25 18:33N 49°50' W 124°32'1212.0
2014-Jul-25 17:33N 49°46' W 124°49'4 4.1
2014-Jul-25 16:33N 49°44' W 124°55'1313.1
2014-Jul-25 15:33N 49°49' W 124°36'1 0.9
2014-Jul-25 14:33N 49°50' W 124°36'1413.5
2014-Jul-25 13:33N 49°44' W 124°55'0 0.1
2014-Jul-25 12:32N 49°44' W 124°55'0 0.0
2014-Jul-25 11:20N 49°44' W 124°55'0 0.0
2014-Jul-25 10:20N 49°44' W 124°55'0 0.0
2014-Jul-25 09:32N 49°44' W 124°55'0 0.0
2014-Jul-25 08:20N 49°44' W 124°55'0 0.0
2014-Jul-25 07:26N 49°44' W 124°55'0 0.0
2014-Jul-25 06:32N 49°44' W 124°55'0 0.0
2014-Jul-25 05:32N 49°44' W 124°55'6 5.6
2014-Jul-25 04:31N 49°46' W 124°47'1110.6
2014-Jul-25 03:32N 49°50' W 124°32'1212.7
2014-Jul-25 02:33N 49°46' W 124°50'4 3.9
2014-Jul-25 01:33N 49°44' W 124°55'1212.2
2014-Jul-25 00:33N 49°49' W 124°38'4 3.4
2014-Jul-24 23:29N 49°50' W 124°33'1314.2
2014-Jul-24 22:33N 49°46' W 124°52'3 2.9
2014-Jul-24 21:33N 49°44' W 124°55'3 3.2
2014-Jul-24 20:29N 49°46' W 124°51'13 6.4
2014-Jul-24 18:30N 49°50' W 124°32'1212.9
2014-Jul-24 17:33N 49°46' W 124°49'4 4.0
2014-Jul-24 16:32N 49°44' W 124°55'1313.4
2014-Jul-24 15:33N 49°49' W 124°36'1 0.6
2014-Jul-24 14:33N 49°50' W 124°36'1313.4
2014-Jul-24 13:33N 49°44' W 124°55'0 0.1
2014-Jul-24 12:11N 49°44' W 124°55'0 0.0
2014-Jul-24 11:29N 49°44' W 124°55'0 0.0
2014-Jul-24 10:11N 49°44' W 124°55'0 0.0
2014-Jul-24 09:17N 49°44' W 124°55'0 0.0
2014-Jul-24 05:05N 49°44' W 124°55'712.8
2014-Jul-24 04:33N 49°47' W 124°46'9 8.5
2014-Jul-24 03:29N 49°50' W 124°33'1415.3
2014-Jul-24 02:33N 49°45' W 124°53'2 1.8
2014-Jul-24 01:33N 49°44' W 124°55'1312.1
2014-Jul-24 00:30N 49°49' W 124°37'3 3.2
2014-Jul-23 23:29N 49°50' W 124°32'1213.2
2014-Jul-23 22:33N 49°46' W 124°50'4 3.7
2014-Jul-23 21:32N 49°44' W 124°55'0 0.0
2014-Jul-23 20:31N 49°44' W 124°55'1010.8
2014-Jul-23 19:33N 49°48' W 124°40'5 4.3
2014-Jul-23 18:20N 49°50' W 124°33'1114.2
2014-Jul-23 17:33N 49°46' W 124°49'5 4.2
2014-Jul-23 16:28N 49°44' W 124°55'1314.1
2014-Jul-23 15:33N 49°49' W 124°37'1 0.6
2014-Jul-23 14:33N 49°49' W 124°36'13 4.1
2014-Jul-23 11:16N 49°44' W 124°55'0 0.0
2014-Jul-23 05:08N 49°44' W 124°55'5 9.5
2014-Jul-23 04:33N 49°47' W 124°48'10 9.7
2014-Jul-23 03:29N 49°50' W 124°32'1414.8
2014-Jul-23 02:34N 49°46' W 124°52'2 2.5
2014-Jul-23 01:33N 49°44' W 124°55'1211.9
2014-Jul-23 00:34N 49°49' W 124°38'4 3.8
2014-Jul-22 23:30N 49°50' W 124°33'1514.8
2014-Jul-22 22:30N 49°45' W 124°54'1 0.6
2014-Jul-22 20:33N 49°44' W 124°55'9 9.6
2014-Jul-22 19:33N 49°48' W 124°42'7 6.4
2014-Jul-22 18:30N 49°50' W 124°32'1213.1
2014-Jul-22 17:33N 49°46' W 124°50'4 3.9
2014-Jul-22 16:33N 49°44' W 124°55'1212.4
2014-Jul-22 15:33N 49°49' W 124°38'1 1.2
2014-Jul-22 14:34N 49°50' W 124°36'1313.3
2014-Jul-22 13:33N 49°44' W 124°55'0 0.1
2014-Jul-22 11:14N 49°44' W 124°55'0 0.0
2014-Jul-22 08:32N 49°44' W 124°55'0 0.0
2014-Jul-22 07:26N 49°44' W 124°55'0 0.0
2014-Jul-22 06:26N 49°44' W 124°55'0 0.0
2014-Jul-22 05:32N 49°44' W 124°55'6 5.8
2014-Jul-22 04:34N 49°47' W 124°48'1110.6
2014-Jul-22 03:33N 49°50' W 124°32'1312.8
2014-Jul-22 02:32N 49°46' W 124°51'3 3.4
2014-Jul-22 01:33N 49°44' W 124°55'1212.0
2014-Jul-22 00:34N 49°49' W 124°38'4 3.7
2014-Jul-21 23:28N 49°50' W 124°32'1314.0
2014-Jul-21 22:32N 49°46' W 124°51'  

Dump ship's entire track history